createdAt,value
2022-12-29T00:01:03.106Z,8.70
2022-12-29T00:03:30.753Z,8.70
2022-12-29T00:05:59.375Z,8.70
2022-12-29T00:08:40.403Z,8.70
2022-12-29T00:11:14.016Z,8.80
2022-12-29T00:14:01.104Z,8.70
2022-12-29T00:16:29.612Z,8.80
2022-12-29T00:18:57.010Z,8.80
2022-12-29T00:21:44.361Z,8.80
2022-12-29T00:24:41.524Z,8.90
2022-12-29T00:27:29.842Z,8.90
2022-12-29T00:30:17.009Z,9.00
2022-12-29T00:33:04.081Z,9.00
2022-12-29T00:35:40.376Z,9.10
2022-12-29T00:38:28.786Z,9.10
2022-12-29T00:41:14.789Z,9.10
2022-12-29T00:44:00.698Z,9.10
2022-12-29T00:46:28.559Z,9.20
2022-12-29T00:49:16.017Z,9.20
2022-12-29T00:51:45.816Z,9.20
2022-12-29T00:54:13.908Z,9.30
2022-12-29T00:56:42.034Z,9.30
2022-12-29T00:59:11.273Z,9.30
2022-12-29T01:01:39.490Z,9.30
2022-12-29T01:04:08.115Z,9.30
2022-12-29T01:06:37.402Z,9.30
2022-12-29T01:09:24.594Z,9.30
2022-12-29T01:11:52.429Z,9.30
2022-12-29T01:14:20.706Z,9.20
2022-12-29T01:16:48.802Z,9.20
2022-12-29T01:19:19.309Z,9.30
2022-12-29T01:21:47.853Z,9.20
2022-12-29T01:24:16.604Z,9.30
2022-12-29T01:26:44.511Z,9.30
2022-12-29T01:29:11.932Z,9.30
2022-12-29T01:31:39.637Z,9.30
2022-12-29T01:34:08.024Z,9.30
2022-12-29T01:36:35.521Z,9.40
2022-12-29T01:39:03.098Z,9.40
2022-12-29T01:41:31.179Z,9.50
2022-12-29T01:44:01.842Z,9.50
2022-12-29T01:46:34.673Z,9.60
2022-12-29T01:49:19.435Z,9.60
2022-12-29T01:51:54.449Z,9.60
2022-12-29T01:54:43.957Z,9.70
2022-12-29T01:57:17.592Z,9.80
2022-12-29T01:59:54.182Z,9.80
2022-12-29T02:02:21.909Z,9.80
2022-12-29T02:04:49.435Z,9.90
2022-12-29T02:07:22.115Z,9.90
2022-12-29T02:09:52.574Z,10.00
2022-12-29T02:12:21.840Z,10.00
2022-12-29T02:14:54.477Z,10.10
2022-12-29T02:17:43.864Z,10.10
2022-12-29T02:20:36.347Z,10.20
2022-12-29T02:23:15.773Z,10.20
2022-12-29T02:26:08.535Z,10.20
2022-12-29T02:29:10.306Z,10.30
2022-12-29T02:32:06.795Z,10.30
2022-12-29T02:35:07.858Z,10.40
2022-12-29T02:37:56.998Z,10.40
2022-12-29T02:40:55.861Z,10.40
2022-12-29T02:43:42.917Z,10.50
2022-12-29T02:46:41.509Z,10.50
2022-12-29T02:49:28.894Z,10.50
2022-12-29T02:52:20.289Z,10.60
2022-12-29T02:54:50.339Z,10.60
2022-12-29T02:57:23.404Z,10.70
2022-12-29T02:59:56.404Z,10.70
2022-12-29T03:02:42.248Z,10.70
2022-12-29T03:05:53.874Z,10.80
2022-12-29T03:09:18.498Z,10.90
2022-12-29T03:12:21.083Z,10.90
2022-12-29T03:15:22.927Z,11.00
2022-12-29T03:18:05.271Z,11.00
2022-12-29T03:20:43.027Z,11.00
2022-12-29T03:26:01.028Z,11.10
2022-12-29T03:28:33.425Z,11.10
2022-12-29T03:31:04.093Z,11.10
2022-12-29T03:33:32.770Z,11.20
2022-12-29T03:36:05.612Z,11.20
2022-12-29T03:38:41.828Z,11.20
2022-12-29T03:41:20.703Z,11.20
2022-12-29T03:43:48.462Z,11.20
2022-12-29T03:46:16.112Z,11.20
2022-12-29T03:48:43.591Z,11.20
2022-12-29T03:51:11.177Z,11.20
2022-12-29T03:53:38.857Z,11.30
2022-12-29T03:56:06.640Z,11.30
2022-12-29T03:58:35.329Z,11.40
2022-12-29T04:01:12.104Z,11.50
2022-12-29T04:03:40.236Z,11.60
2022-12-29T04:06:09.039Z,11.60
2022-12-29T04:08:44.688Z,11.60
2022-12-29T04:11:12.485Z,11.70
2022-12-29T04:13:42.079Z,11.70
2022-12-29T04:16:11.490Z,11.80
2022-12-29T04:18:38.952Z,11.80
2022-12-29T04:21:07.615Z,11.90
2022-12-29T04:23:40.126Z,11.90
2022-12-29T04:26:10.237Z,11.90
2022-12-29T04:29:03.348Z,12.00
2022-12-29T04:31:45.336Z,12.00
2022-12-29T04:34:13.035Z,12.00
2022-12-29T04:36:40.684Z,12.00
2022-12-29T04:39:08.731Z,12.00
2022-12-29T04:41:37.122Z,12.00
2022-12-29T04:44:06.728Z,12.10
2022-12-29T04:46:53.274Z,12.00
2022-12-29T04:49:40.923Z,12.00
2022-12-29T04:52:23.906Z,12.00
2022-12-29T04:54:52.451Z,12.00
2022-12-29T04:57:21.811Z,12.00
2022-12-29T04:59:53.436Z,12.00
2022-12-29T05:02:20.964Z,11.90
2022-12-29T05:04:50.564Z,11.90
2022-12-29T05:07:18.473Z,11.80
2022-12-29T05:09:46.284Z,11.80
2022-12-29T05:12:13.635Z,11.70
2022-12-29T05:14:49.625Z,11.60
2022-12-29T05:17:17.010Z,11.60
2022-12-29T05:19:44.770Z,11.60
2022-12-29T05:22:12.729Z,11.50
2022-12-29T05:24:40.295Z,11.40
2022-12-29T05:27:09.780Z,11.40
2022-12-29T05:29:56.153Z,11.30
2022-12-29T05:32:23.669Z,11.30
2022-12-29T05:34:50.988Z,11.30
2022-12-29T05:37:19.315Z,11.20
2022-12-29T05:39:47.223Z,11.20
2022-12-29T05:42:15.197Z,11.20
2022-12-29T05:45:09.409Z,11.20
2022-12-29T05:48:15.349Z,11.10
2022-12-29T05:51:05.046Z,11.00
2022-12-29T05:53:47.471Z,11.00
2022-12-29T05:56:14.989Z,10.90
2022-12-29T05:58:42.725Z,10.90
2022-12-29T06:01:10.171Z,10.90
2022-12-29T06:03:42.970Z,10.90
2022-12-29T06:06:13.696Z,10.90
2022-12-29T06:08:41.441Z,10.80
2022-12-29T06:11:10.669Z,10.80
2022-12-29T06:13:39.540Z,10.70
2022-12-29T06:16:07.600Z,10.70
2022-12-29T06:18:35.771Z,10.60
2022-12-29T06:21:05.792Z,10.50
2022-12-29T06:23:33.255Z,10.50
2022-12-29T06:26:00.692Z,10.40
2022-12-29T06:28:28.096Z,10.30
2022-12-29T06:30:55.492Z,10.20
2022-12-29T06:33:23.124Z,10.20
2022-12-29T06:35:51.277Z,10.10
2022-12-29T06:38:18.610Z,10.00
2022-12-29T06:40:46.488Z,10.00
2022-12-29T06:43:42.384Z,9.90
2022-12-29T06:46:20.031Z,9.90
2022-12-29T06:48:47.550Z,9.90
2022-12-29T06:51:14.935Z,9.90
2022-12-29T06:53:42.324Z,9.90
2022-12-29T06:56:09.814Z,10.00
2022-12-29T06:58:37.138Z,10.00
2022-12-29T07:01:04.819Z,10.10
2022-12-29T07:03:32.543Z,10.10
2022-12-29T07:05:59.975Z,10.20
2022-12-29T07:08:27.324Z,10.20
2022-12-29T07:10:54.763Z,10.30
2022-12-29T07:13:22.214Z,10.30
2022-12-29T07:15:49.548Z,10.40
2022-12-29T07:18:16.969Z,10.40
2022-12-29T07:20:44.974Z,10.40
2022-12-29T07:23:12.471Z,10.50
2022-12-29T07:25:41.753Z,10.50
2022-12-29T07:28:09.012Z,10.50
2022-12-29T07:30:39.382Z,10.50
2022-12-29T07:33:06.734Z,10.50
2022-12-29T07:35:37.191Z,10.50
2022-12-29T07:38:04.536Z,10.50
2022-12-29T07:40:32.010Z,10.50
2022-12-29T07:43:00.539Z,10.50
2022-12-29T07:45:34.908Z,10.50
2022-12-29T07:48:10.355Z,10.50
2022-12-29T07:50:38.133Z,10.50
2022-12-29T07:53:05.626Z,10.50
2022-12-29T07:55:33.437Z,10.50
2022-12-29T07:58:01.003Z,10.40
2022-12-29T08:00:28.405Z,10.40
2022-12-29T08:02:58.142Z,10.40
2022-12-29T08:05:25.637Z,10.40
2022-12-29T08:07:53.249Z,10.40
2022-12-29T08:10:20.625Z,10.40
2022-12-29T08:12:48.003Z,10.40
2022-12-29T08:15:15.664Z,10.50
2022-12-29T08:17:43.105Z,10.50
2022-12-29T08:20:11.694Z,10.50
2022-12-29T08:22:39.197Z,10.60
2022-12-29T08:25:07.063Z,10.60
2022-12-29T08:27:34.409Z,10.70
2022-12-29T08:30:01.996Z,10.80
2022-12-29T08:32:29.417Z,10.80
2022-12-29T08:34:56.898Z,10.90
2022-12-29T08:37:29.261Z,11.10
2022-12-29T08:39:59.696Z,11.20
2022-12-29T08:42:31.899Z,11.20
2022-12-29T08:45:00.423Z,11.40
2022-12-29T08:47:28.199Z,11.50
2022-12-29T08:49:55.642Z,11.60
2022-12-29T08:52:23.854Z,11.70
2022-12-29T08:54:51.642Z,11.90
2022-12-29T08:57:19.159Z,12.00
2022-12-29T09:00:11.405Z,12.10
2022-12-29T09:02:39.016Z,12.20
2022-12-29T09:05:07.118Z,12.30
2022-12-29T09:07:34.548Z,12.40
2022-12-29T09:10:02.487Z,12.50
2022-12-29T09:12:35.916Z,12.60
2022-12-29T09:15:04.756Z,12.60
2022-12-29T09:17:47.444Z,12.70
2022-12-29T09:20:17.639Z,12.80
2022-12-29T09:22:45.566Z,12.80
2022-12-29T09:25:13.093Z,12.90
2022-12-29T09:27:41.170Z,12.90
2022-12-29T09:30:12.433Z,13.00
2022-12-29T09:32:44.792Z,13.00
2022-12-29T09:35:13.723Z,13.10
2022-12-29T09:37:41.234Z,13.10
2022-12-29T09:40:18.469Z,13.20
2022-12-29T09:43:13.061Z,13.20
2022-12-29T09:45:48.342Z,13.30
2022-12-29T09:48:20.929Z,13.30
2022-12-29T09:50:53.780Z,13.40
2022-12-29T09:53:39.380Z,13.40
2022-12-29T09:56:15.968Z,13.50
2022-12-29T09:58:52.532Z,13.50
2022-12-29T10:01:31.194Z,13.50
2022-12-29T10:04:00.573Z,13.50
2022-12-29T10:09:54.487Z,13.60
2022-12-29T10:13:04.295Z,13.70
2022-12-29T10:16:00.827Z,13.80
2022-12-29T10:18:52.402Z,13.90
2022-12-29T10:21:38.434Z,14.00
2022-12-29T10:24:10.917Z,14.00
2022-12-29T10:26:42.700Z,14.10
2022-12-29T10:29:33.385Z,14.20
2022-12-29T10:32:13.587Z,14.20
2022-12-29T10:34:48.304Z,14.30
2022-12-29T10:37:18.664Z,14.40
2022-12-29T10:39:56.636Z,14.50
2022-12-29T10:42:26.828Z,14.50
2022-12-29T10:44:58.255Z,14.60
2022-12-29T10:47:30.535Z,14.70
2022-12-29T10:49:59.393Z,14.80
2022-12-29T10:52:29.607Z,14.90
2022-12-29T10:55:16.454Z,15.00
2022-12-29T10:57:48.081Z,15.00
2022-12-29T11:00:18.612Z,15.20
2022-12-29T11:03:10.804Z,15.20
2022-12-29T11:06:15.821Z,15.30
2022-12-29T11:08:57.188Z,15.40
2022-12-29T11:11:28.339Z,15.40
2022-12-29T11:14:09.947Z,15.40
2022-12-29T11:16:37.451Z,15.50
2022-12-29T11:19:04.958Z,15.50
2022-12-29T11:21:41.491Z,15.60
2022-12-29T11:24:30.643Z,15.60
2022-12-29T11:27:21.533Z,15.60
2022-12-29T11:29:50.591Z,15.60
2022-12-29T11:32:29.235Z,15.60
2022-12-29T11:35:02.648Z,15.50
2022-12-29T11:37:41.056Z,15.50
2022-12-29T11:40:20.422Z,15.50
2022-12-29T11:43:03.532Z,15.50
2022-12-29T11:45:34.957Z,15.40
2022-12-29T11:48:14.560Z,15.40
2022-12-29T11:50:49.540Z,15.40
2022-12-29T11:53:22.808Z,15.40
2022-12-29T11:55:56.921Z,15.30
2022-12-29T11:58:33.591Z,15.30
2022-12-29T12:01:26.372Z,15.30
2022-12-29T12:04:07.828Z,15.20
2022-12-29T12:06:43.469Z,15.20
2022-12-29T12:09:19.937Z,15.20
2022-12-29T12:11:48.098Z,15.10
2022-12-29T12:14:21.675Z,15.10
2022-12-29T12:17:39.289Z,15.10
2022-12-29T12:20:23.031Z,15.00
2022-12-29T12:23:03.152Z,15.00
2022-12-29T12:25:38.597Z,14.90
2022-12-29T12:28:14.486Z,14.90
2022-12-29T12:30:47.093Z,14.80
2022-12-29T12:33:28.835Z,14.80
2022-12-29T12:36:27.780Z,14.80
2022-12-29T12:39:13.419Z,14.70
2022-12-29T12:42:14.685Z,14.80
2022-12-29T12:45:15.328Z,14.80
2022-12-29T12:47:58.721Z,14.70
2022-12-29T12:50:37.951Z,14.70
2022-12-29T12:53:35.329Z,14.70
2022-12-29T12:56:28.557Z,14.80
2022-12-29T12:59:33.699Z,14.70
2022-12-29T13:02:29.164Z,14.80
2022-12-29T13:05:22.670Z,14.70
2022-12-29T13:07:59.333Z,14.70
2022-12-29T13:10:41.836Z,14.70
2022-12-29T13:13:35.560Z,14.70
2022-12-29T13:16:18.229Z,14.70
2022-12-29T13:19:26.205Z,14.70
2022-12-29T13:22:20.371Z,14.70
2022-12-29T13:25:16.678Z,14.60
2022-12-29T13:28:16.042Z,14.70
2022-12-29T13:30:50.306Z,14.60
2022-12-29T13:33:33.361Z,14.60
2022-12-29T13:36:17.369Z,14.60
2022-12-29T13:38:49.353Z,14.60
2022-12-29T13:41:31.791Z,14.60
2022-12-29T13:44:02.758Z,14.60
2022-12-29T13:46:37.866Z,14.60
2022-12-29T13:49:12.846Z,14.50
2022-12-29T13:51:49.055Z,14.50
2022-12-29T13:54:26.077Z,14.50
2022-12-29T13:57:20.305Z,14.40
2022-12-29T13:59:58.769Z,14.40
2022-12-29T14:03:07.533Z,14.40
2022-12-29T14:05:35.267Z,14.40
2022-12-29T14:08:06.458Z,14.30
2022-12-29T14:10:51.082Z,14.30
2022-12-29T14:13:24.368Z,14.30
2022-12-29T14:15:58.976Z,14.30
2022-12-29T14:18:32.906Z,14.30
2022-12-29T14:21:08.657Z,14.30
2022-12-29T14:23:44.506Z,14.30
2022-12-29T14:26:32.678Z,14.20
2022-12-29T14:29:33.343Z,14.20
2022-12-29T14:32:00.930Z,14.20
2022-12-29T14:34:30.990Z,14.20
2022-12-29T14:37:03.057Z,14.20
2022-12-29T14:39:42.901Z,14.20
2022-12-29T14:42:10.183Z,14.10
2022-12-29T14:45:27.399Z,14.10
2022-12-29T14:47:55.339Z,14.10
2022-12-29T14:50:34.638Z,14.10
2022-12-29T14:53:06.046Z,14.10
2022-12-29T14:55:47.613Z,14.10
2022-12-29T14:58:28.747Z,14.10
2022-12-29T15:00:57.000Z,14.00
2022-12-29T15:03:29.951Z,14.00
2022-12-29T15:06:12.145Z,14.00
2022-12-29T15:09:15.440Z,14.00
2022-12-29T15:11:51.684Z,13.90
2022-12-29T15:14:48.850Z,13.90
2022-12-29T15:17:43.420Z,14.00
2022-12-29T15:20:25.870Z,13.90
2022-12-29T15:22:59.545Z,13.90
2022-12-29T15:25:27.689Z,13.90
2022-12-29T15:28:00.301Z,13.90
2022-12-29T15:30:27.867Z,13.90
2022-12-29T15:32:55.389Z,13.90
2022-12-29T15:35:37.579Z,13.90
2022-12-29T15:38:17.568Z,13.80
2022-12-29T15:40:46.339Z,13.80
2022-12-29T15:43:20.462Z,13.80
2022-12-29T15:45:48.190Z,13.80
2022-12-29T15:48:20.303Z,13.80
2022-12-29T15:50:48.165Z,13.80
2022-12-29T15:53:29.181Z,13.70
2022-12-29T15:56:06.756Z,13.70
2022-12-29T15:58:45.352Z,13.70
2022-12-29T16:01:37.057Z,13.60
2022-12-29T16:04:08.487Z,13.60
2022-12-29T16:06:44.876Z,13.60
2022-12-29T16:09:18.447Z,13.50
2022-12-29T16:11:51.755Z,13.50
2022-12-29T16:14:45.470Z,13.40
2022-12-29T16:17:27.819Z,13.40
2022-12-29T16:20:01.433Z,13.40
2022-12-29T16:22:39.685Z,13.40
2022-12-29T16:25:30.187Z,13.40
2022-12-29T16:27:58.103Z,13.40
2022-12-29T16:30:33.168Z,13.40
2022-12-29T16:33:03.928Z,13.40
2022-12-29T16:35:45.218Z,13.40
2022-12-29T16:38:17.991Z,13.40
2022-12-29T16:41:00.001Z,13.50
2022-12-29T16:43:33.987Z,13.40
2022-12-29T16:46:01.410Z,13.40
2022-12-29T16:48:30.819Z,13.40
2022-12-29T16:51:05.533Z,13.40
2022-12-29T16:53:37.233Z,13.40
2022-12-29T16:56:15.302Z,13.40
2022-12-29T16:58:49.148Z,13.40
2022-12-29T17:01:19.720Z,13.40
2022-12-29T17:03:59.296Z,13.40
2022-12-29T17:06:26.979Z,13.40
2022-12-29T17:08:54.332Z,13.40
2022-12-29T17:11:55.580Z,13.40
2022-12-29T17:14:52.676Z,13.40
2022-12-29T17:17:22.315Z,13.40
2022-12-29T17:19:55.129Z,13.40
2022-12-29T17:22:26.110Z,13.40
2022-12-29T17:24:58.972Z,13.40
2022-12-29T17:27:34.294Z,13.40
2022-12-29T17:30:06.352Z,13.30
2022-12-29T17:32:34.052Z,13.30
2022-12-29T17:35:01.369Z,13.20
2022-12-29T17:37:37.626Z,13.10
2022-12-29T17:40:08.362Z,13.00
2022-12-29T17:42:40.511Z,12.90
2022-12-29T17:45:17.676Z,12.80
2022-12-29T17:47:45.297Z,12.70
2022-12-29T17:50:14.882Z,12.60
2022-12-29T17:52:44.073Z,12.60
2022-12-29T17:55:19.398Z,12.50
2022-12-29T17:57:47.217Z,12.40
2022-12-29T18:00:21.356Z,12.30
2022-12-29T18:02:49.511Z,12.20
2022-12-29T18:05:21.712Z,12.20
2022-12-29T18:07:52.413Z,12.20
2022-12-29T18:10:21.229Z,12.10
2022-12-29T18:12:50.324Z,12.10
2022-12-29T18:15:23.985Z,12.00
2022-12-29T18:18:14.161Z,12.00
2022-12-29T18:20:43.204Z,11.90
2022-12-29T18:23:23.506Z,11.90
2022-12-29T18:25:55.567Z,11.90
2022-12-29T18:28:24.888Z,11.80
2022-12-29T18:30:53.253Z,11.70
2022-12-29T18:33:24.984Z,11.70
2022-12-29T18:35:56.877Z,11.60
2022-12-29T18:38:24.523Z,11.60
2022-12-29T18:40:52.148Z,11.50
2022-12-29T18:43:20.508Z,11.40
2022-12-29T18:45:47.960Z,11.40
2022-12-29T18:48:17.092Z,11.30
2022-12-29T18:50:45.501Z,11.30
2022-12-29T18:53:17.890Z,11.20
2022-12-29T18:55:45.445Z,11.20
2022-12-29T18:58:13.186Z,11.10
2022-12-29T19:00:40.928Z,11.10
2022-12-29T19:03:15.380Z,11.10
2022-12-29T19:05:44.103Z,11.00
2022-12-29T19:08:12.847Z,11.00
2022-12-29T19:10:41.891Z,10.90
2022-12-29T19:13:16.432Z,10.90
2022-12-29T19:15:46.551Z,10.90
2022-12-29T19:21:08.054Z,10.90
2022-12-29T19:23:35.567Z,10.90
2022-12-29T19:26:03.501Z,10.90
2022-12-29T19:28:30.888Z,10.90
2022-12-29T19:31:00.340Z,10.90
2022-12-29T19:33:28.419Z,10.80
2022-12-29T19:36:02.846Z,10.80
2022-12-29T19:38:30.323Z,10.80
2022-12-29T19:40:57.887Z,10.80
2022-12-29T19:43:25.491Z,10.80
2022-12-29T19:45:53.866Z,10.80
2022-12-29T19:48:21.687Z,10.80
2022-12-29T19:50:49.318Z,10.80
2022-12-29T19:53:16.720Z,10.80
2022-12-29T19:55:45.537Z,10.80
2022-12-29T19:58:14.122Z,10.80
2022-12-29T20:00:43.051Z,10.80
2022-12-29T20:03:11.229Z,10.90
2022-12-29T20:05:39.610Z,10.90
2022-12-29T20:08:07.296Z,10.90
2022-12-29T20:10:34.747Z,10.90
2022-12-29T20:13:04.462Z,11.00
2022-12-29T20:15:32.327Z,11.00
2022-12-29T20:18:13.273Z,11.00
2022-12-29T20:20:42.051Z,11.00
2022-12-29T20:23:09.494Z,11.10
2022-12-29T20:25:46.022Z,11.10
2022-12-29T20:28:15.608Z,11.10
2022-12-29T20:30:43.956Z,11.20
2022-12-29T20:33:11.532Z,11.20
2022-12-29T20:35:39.302Z,11.20
2022-12-29T20:38:06.692Z,11.20
2022-12-29T20:40:40.666Z,11.20
2022-12-29T20:43:12.154Z,11.20
2022-12-29T20:45:40.453Z,11.20
2022-12-29T20:48:07.963Z,11.20
2022-12-29T20:50:35.631Z,11.20
2022-12-29T20:53:03.497Z,11.10
2022-12-29T20:55:30.895Z,11.20
2022-12-29T20:58:23.270Z,11.10
2022-12-29T21:00:45.966Z,11.20
2022-12-29T21:03:13.402Z,11.20
2022-12-29T21:05:40.998Z,11.20
2022-12-29T21:08:08.472Z,11.20
2022-12-29T21:10:35.872Z,11.20
2022-12-29T21:13:03.633Z,11.20
2022-12-29T21:15:32.816Z,11.20
2022-12-29T21:18:00.216Z,11.20
2022-12-29T21:20:31.818Z,11.20
2022-12-29T21:23:01.288Z,11.20
2022-12-29T21:25:36.892Z,11.20
2022-12-29T21:28:09.484Z,11.10
2022-12-29T21:30:36.986Z,11.20
2022-12-29T21:33:05.155Z,11.20
2022-12-29T21:35:36.233Z,11.10
2022-12-29T21:38:03.445Z,11.10
2022-12-29T21:40:32.280Z,11.20
2022-12-29T21:42:59.609Z,11.10
2022-12-29T21:45:27.578Z,11.20
2022-12-29T21:48:16.167Z,11.20
2022-12-29T21:51:26.778Z,11.20
2022-12-29T21:54:19.612Z,11.20
2022-12-29T21:56:48.399Z,11.20
2022-12-29T21:59:35.405Z,11.20
2022-12-29T22:02:23.396Z,11.20
2022-12-29T22:05:09.639Z,11.20
2022-12-29T22:07:55.584Z,11.20
2022-12-29T22:10:41.535Z,11.20
2022-12-29T22:13:08.881Z,11.20
2022-12-29T22:15:37.329Z,11.20
2022-12-29T22:18:05.233Z,11.20
2022-12-29T22:20:35.656Z,11.20
2022-12-29T22:23:03.576Z,11.30
2022-12-29T22:25:31.222Z,11.30
2022-12-29T22:27:59.868Z,11.30
2022-12-29T22:30:28.619Z,11.30
2022-12-29T22:32:58.160Z,11.30
2022-12-29T22:35:25.740Z,11.30
2022-12-29T22:37:53.538Z,11.30
2022-12-29T22:40:21.142Z,11.30
2022-12-29T22:42:48.761Z,11.30
2022-12-29T22:45:16.242Z,11.40
2022-12-29T22:47:43.627Z,11.40
2022-12-29T22:50:11.215Z,11.40
2022-12-29T22:52:38.743Z,11.40
2022-12-29T22:55:08.041Z,11.30
2022-12-29T22:57:36.324Z,11.30
2022-12-29T23:00:08.395Z,11.40
2022-12-29T23:02:36.440Z,11.30
2022-12-29T23:05:05.728Z,11.30
2022-12-29T23:07:35.083Z,11.30
2022-12-29T23:10:04.326Z,11.30
2022-12-29T23:12:32.079Z,11.30
2022-12-29T23:14:59.814Z,11.30
2022-12-29T23:17:27.339Z,11.30
2022-12-29T23:19:54.711Z,11.30
2022-12-29T23:22:23.081Z,11.20
2022-12-29T23:24:50.843Z,11.30
2022-12-29T23:27:18.291Z,11.30
2022-12-29T23:29:45.693Z,11.20
2022-12-29T23:32:13.146Z,11.20
2022-12-29T23:34:40.507Z,11.20
2022-12-29T23:37:07.848Z,11.20
2022-12-29T23:39:35.103Z,11.20
2022-12-29T23:42:02.485Z,11.20
2022-12-29T23:44:30.123Z,11.20
2022-12-29T23:46:57.640Z,11.20
2022-12-29T23:49:24.934Z,11.20
2022-12-29T23:51:52.298Z,11.20
2022-12-29T23:54:19.698Z,11.20
2022-12-29T23:56:47.173Z,11.20
2022-12-29T23:59:14.406Z,11.20
